Terminal Aerodrome Forecast
Issued by NWS

Home | Current Version | Previous Version | Text Only | Print | Product List | Glossary On
Versions: 1 2 3 4 5 6 7 8 9 10 11 12 13 14 15 16 17 18 19 20 21
000
FTUS44 KLZK 162336
TAFHOT
TAF
KHOT 162336Z 1700/1724 20007KT P6SM SCT040 BKN250
     FM170600 15005KT P6SM OVC100
      TEMPO 1706/1710 4SM TSRA BR OVC050CB
     FM171000 23008KT 5SM SHRA BR OVC050
     FM171900 24007KT P6SM BKN250=

USA.gov is the U.S. government's official web portal to all federal, state and local government web resources and services.